Etusivu
METAR-TAF:

METAR-TAF

Lentoasemat :

Sanikiluaqin lentoasema

Sanikiluaq, Nunavut, Kanada

Leveyspiiri: 56-32N, Pituuspiiri: 079-15W, korkeus merenpinnasta: 32 m

Tämänhetkinen sää

Tämä raportti tehtiin 12 tuntia ja 6 minuuttia sitten, kello 23.00 UTC
Tuuli 10 kn pohjoisen/luoteesta
Lämpötila -7°C
Kosteus 67%
Ilmanpaine 1007 hPa
Näkyvyys: 24.1 km
Hajanaisia pilviä 18000 ft:n korkeudessa

METAR: CYSK 052300Z 33010KT 15SM SCT180 M07/M12 A2975 RMK CC4 SN CVR/TRACE LOOSE LAST OBS/NEXT 061300UTC SLP079

Aika: 06:06 (11:06 UTC)


TAF: puuttuu

Säähavainnot ja -ennusteet yli 4000 lentoasemalta (METAR- ja TAF-raportit).

Käytössä olevat sääasemat on merkitty karttaan keltaisilla ja punaisilla pisteillä.

Aseta hiiri pisteen päälle nähdäksesi sääaseman nimen.

Klikkaa sitten nähdäksesi säähavainnot ja -ennusteet.

Kartan vaihtaminen: klikkaa mustalla rastilla varustettuja vihreitä pisteitä, niin voit zoomata sisään; viivalla varustettua vihreää pistettä, niin voit zoomata ulos tai vihreitä nuolia, niin pääset viereisille kartoille.


METAR-TAF: